createdAt,value
2018-01-14T00:02:17.005Z,43.27
2018-01-14T00:04:48.051Z,48.63
2018-01-14T00:07:15.755Z,33.27
2018-01-14T00:09:46.909Z,36.27
2018-01-14T00:12:15.717Z,32.83
2018-01-14T00:14:43.435Z,38.00
2018-01-14T00:17:24.573Z,30.37
2018-01-14T00:19:52.263Z,31.57
2018-01-14T00:22:19.939Z,32.23
2018-01-14T00:24:47.606Z,34.17
2018-01-14T00:27:16.307Z,46.80
2018-01-14T00:29:44.061Z,34.13
2018-01-14T00:32:11.743Z,36.63
2018-01-14T00:34:38.455Z,30.90
2018-01-14T00:37:06.197Z,37.17
2018-01-14T00:39:33.945Z,35.60
2018-01-14T00:42:00.641Z,35.30
2018-01-14T00:44:29.340Z,33.43
2018-01-14T00:46:58.031Z,31.70
2018-01-14T00:49:24.769Z,37.77
2018-01-14T00:51:52.479Z,31.57
2018-01-14T00:54:21.182Z,38.90
2018-01-14T00:56:47.887Z,31.07
2018-01-14T00:59:17.625Z,32.00
2018-01-14T01:01:45.583Z,31.43
2018-01-14T01:04:12.275Z,37.53
2018-01-14T01:06:39.960Z,30.70
2018-01-14T01:09:08.725Z,34.03
2018-01-14T01:11:36.442Z,27.90
2018-01-14T01:14:03.131Z,25.33
2018-01-14T01:16:31.855Z,28.60
2018-01-14T01:18:59.523Z,31.33
2018-01-14T01:21:31.819Z,33.20
2018-01-14T01:23:58.502Z,27.03
2018-01-14T01:26:27.979Z,27.50
2018-01-14T01:28:54.743Z,25.97
2018-01-14T01:31:26.131Z,28.20
2018-01-14T01:33:55.004Z,29.73
2018-01-14T01:36:28.014Z,27.87
2018-01-14T01:38:56.763Z,26.13
2018-01-14T01:41:23.527Z,24.30
2018-01-14T01:43:54.438Z,31.27
2018-01-14T01:46:23.133Z,25.60
2018-01-14T01:48:49.864Z,27.70
2018-01-14T01:51:17.617Z,25.27
2018-01-14T01:53:45.334Z,25.53
2018-01-14T01:56:13.981Z,26.97
2018-01-14T01:58:42.155Z,24.97
2018-01-14T02:01:13.646Z,26.53
2018-01-14T02:03:40.396Z,24.67
2018-01-14T02:06:09.049Z,24.40
2018-01-14T02:08:37.808Z,26.33
2018-01-14T02:11:05.503Z,24.80
2018-01-14T02:13:34.227Z,28.43
2018-01-14T02:16:02.909Z,27.83
2018-01-14T02:18:36.206Z,28.17
2018-01-14T02:21:04.897Z,25.70
2018-01-14T02:23:31.616Z,29.60
2018-01-14T02:26:01.533Z,26.10
2018-01-14T02:28:28.226Z,23.27
2018-01-14T02:30:57.136Z,26.07
2018-01-14T02:33:23.921Z,28.63
2018-01-14T02:35:54.311Z,29.20
2018-01-14T02:38:22.033Z,28.17
2018-01-14T02:40:48.759Z,28.20
2018-01-14T02:43:16.459Z,31.07
2018-01-14T02:45:43.169Z,29.63
2018-01-14T02:48:13.915Z,30.77
2018-01-14T02:50:41.615Z,27.77
2018-01-14T02:53:09.351Z,29.17
2018-01-14T02:55:41.117Z,27.57
2018-01-14T02:58:08.809Z,25.87
2018-01-14T03:00:35.547Z,28.33
2018-01-14T03:03:03.187Z,29.97
2018-01-14T03:05:30.867Z,28.33
2018-01-14T03:08:02.305Z,28.73
2018-01-14T03:10:31.067Z,23.97
2018-01-14T03:13:03.574Z,25.70
2018-01-14T03:15:31.243Z,27.07
2018-01-14T03:17:59.931Z,27.20
2018-01-14T03:20:26.609Z,29.87
2018-01-14T03:22:54.271Z,24.37
2018-01-14T03:25:21.894Z,26.03
2018-01-14T03:27:53.079Z,20.37
2018-01-14T03:30:19.833Z,18.83
2018-01-14T03:32:47.567Z,18.33
2018-01-14T03:35:14.326Z,25.60
2018-01-14T03:37:41.109Z,18.90
2018-01-14T03:40:09.735Z,19.60
2018-01-14T03:42:36.428Z,18.87
2018-01-14T03:45:03.135Z,19.23
2018-01-14T03:47:30.793Z,21.13
2018-01-14T03:50:01.636Z,24.47
2018-01-14T03:52:29.353Z,20.97
2018-01-14T03:54:57.990Z,23.33
2018-01-14T03:57:25.651Z,19.60
2018-01-14T03:59:54.418Z,22.10
2018-01-14T04:02:23.143Z,17.27
2018-01-14T04:04:49.821Z,23.13
2018-01-14T04:07:17.359Z,20.90
2018-01-14T04:09:44.103Z,22.10
2018-01-14T04:12:12.765Z,21.57
2018-01-14T04:14:40.459Z,19.23
2018-01-14T04:17:07.201Z,21.40
2018-01-14T04:19:38.869Z,19.20
2018-01-14T04:22:05.647Z,17.20
2018-01-14T04:24:33.353Z,20.17
2018-01-14T04:27:01.067Z,20.40
2018-01-14T04:29:28.813Z,22.20
2018-01-14T04:31:55.525Z,21.80
2018-01-14T04:34:23.195Z,19.50
2018-01-14T04:36:50.009Z,22.87
2018-01-14T04:39:17.721Z,21.00
2018-01-14T04:41:46.403Z,17.70
2018-01-14T04:44:14.141Z,22.50
2018-01-14T04:46:41.845Z,23.60
2018-01-14T04:49:18.275Z,22.70
2018-01-14T04:51:45.987Z,24.03
2018-01-14T04:54:14.675Z,23.47
2018-01-14T04:56:46.473Z,24.90
2018-01-14T05:02:11.869Z,28.17
2018-01-14T05:04:44.543Z,26.07
2018-01-14T05:07:18.281Z,28.40
2018-01-14T05:10:02.841Z,27.83
2018-01-14T05:12:29.583Z,26.20
2018-01-14T05:14:57.241Z,25.97
2018-01-14T05:17:23.935Z,24.60
2018-01-14T05:19:50.633Z,23.03
2018-01-14T05:22:19.306Z,25.37
2018-01-14T05:24:46.003Z,26.83
2018-01-14T05:27:12.754Z,23.00
2018-01-14T05:29:44.971Z,26.60
2018-01-14T05:32:12.717Z,31.80
2018-01-14T05:34:41.459Z,29.63
2018-01-14T05:37:08.193Z,29.13
2018-01-14T05:39:35.871Z,33.73
2018-01-14T05:42:02.578Z,34.23
2018-01-14T05:44:30.245Z,36.60
2018-01-14T05:47:00.378Z,32.67
2018-01-14T05:49:29.083Z,29.10
2018-01-14T05:51:55.801Z,24.20
2018-01-14T05:54:24.519Z,32.27
2018-01-14T05:56:55.449Z,32.83
2018-01-14T05:59:23.116Z,32.30
2018-01-14T06:01:49.961Z,28.13
2018-01-14T06:04:17.619Z,25.17
2018-01-14T06:06:45.290Z,31.57
2018-01-14T06:09:12.987Z,34.00
2018-01-14T06:11:39.686Z,28.90
2018-01-14T06:14:07.360Z,32.47
2018-01-14T06:16:36.058Z,27.77
2018-01-14T06:19:07.828Z,33.53
2018-01-14T06:21:35.487Z,33.07
2018-01-14T06:24:04.208Z,36.20
2018-01-14T06:26:31.944Z,30.60
2018-01-14T06:29:03.144Z,29.77
2018-01-14T06:31:30.912Z,29.33
2018-01-14T06:33:57.618Z,28.70
2018-01-14T06:36:25.377Z,32.40
2018-01-14T06:38:52.410Z,30.97
2018-01-14T06:41:20.088Z,29.13
2018-01-14T06:43:47.811Z,33.20
2018-01-14T06:46:15.560Z,31.77
2018-01-14T06:48:44.252Z,32.47
2018-01-14T06:51:12.000Z,33.23
2018-01-14T06:53:39.096Z,35.40
2018-01-14T06:56:07.851Z,36.23
2018-01-14T07:01:22.010Z,36.90
2018-01-14T07:03:51.961Z,35.93
2018-01-14T07:06:18.709Z,31.43
2018-01-14T07:08:45.430Z,33.33
2018-01-14T07:11:13.130Z,31.50
2018-01-14T07:13:40.827Z,37.20
2018-01-14T07:16:08.327Z,35.83
2018-01-14T07:18:38.392Z,33.77
2018-01-14T07:21:09.164Z,34.37
2018-01-14T07:23:37.875Z,40.90
2018-01-14T07:26:05.506Z,33.30
2018-01-14T07:28:37.846Z,31.27
2018-01-14T07:31:04.535Z,31.50
2018-01-14T07:33:33.231Z,35.93
2018-01-14T07:35:59.944Z,32.13
2018-01-14T07:38:27.640Z,35.80
2018-01-14T07:41:03.805Z,36.73
2018-01-14T07:43:31.475Z,31.73
2018-01-14T07:45:58.174Z,36.00
2018-01-14T07:48:26.187Z,31.90
2018-01-14T07:50:52.879Z,35.23
2018-01-14T07:53:29.008Z,31.47
2018-01-14T07:55:55.735Z,30.80
2018-01-14T07:58:24.422Z,33.47
2018-01-14T08:00:53.382Z,28.73
2018-01-14T08:03:20.068Z,28.10
2018-01-14T08:05:55.832Z,24.40
2018-01-14T08:08:24.735Z,30.60
2018-01-14T08:10:52.397Z,32.43
2018-01-14T08:13:19.128Z,34.50
2018-01-14T08:15:45.828Z,37.20
2018-01-14T08:18:13.580Z,33.83
2018-01-14T08:20:42.247Z,33.73
2018-01-14T08:23:09.035Z,29.30
2018-01-14T08:25:37.814Z,29.90
2018-01-14T08:28:05.930Z,30.00
2018-01-14T08:30:32.601Z,32.93
2018-01-14T08:33:01.274Z,30.07
2018-01-14T08:35:28.072Z,31.90
2018-01-14T08:38:01.056Z,34.67
2018-01-14T08:40:28.933Z,23.97
2018-01-14T08:42:55.632Z,30.13
2018-01-14T08:45:22.320Z,30.20
2018-01-14T08:47:49.038Z,25.93
2018-01-14T08:50:19.862Z,23.00
2018-01-14T08:52:46.885Z,28.77
2018-01-14T08:55:13.650Z,23.00
2018-01-14T08:57:41.316Z,23.97
2018-01-14T09:00:09.847Z,26.20
2018-01-14T09:02:36.628Z,23.17
2018-01-14T09:05:03.315Z,27.13
2018-01-14T09:07:30.010Z,29.80
2018-01-14T09:10:11.290Z,24.63
2018-01-14T09:12:37.990Z,23.80
2018-01-14T09:15:04.739Z,26.60
2018-01-14T09:17:31.481Z,20.70
2018-01-14T09:19:59.425Z,20.83
2018-01-14T09:22:37.134Z,25.37
2018-01-14T09:25:03.812Z,30.53
2018-01-14T09:27:30.822Z,28.03
2018-01-14T09:29:58.539Z,21.60
2018-01-14T09:32:25.236Z,20.23
2018-01-14T09:34:51.931Z,22.80
2018-01-14T09:37:18.640Z,27.47
2018-01-14T09:39:45.326Z,22.17
2018-01-14T09:42:12.032Z,25.10
2018-01-14T09:44:38.742Z,25.10
2018-01-14T09:47:05.467Z,23.83
2018-01-14T09:49:32.170Z,25.00
2018-01-14T09:51:58.904Z,23.40
2018-01-14T09:54:25.604Z,26.30
2018-01-14T09:56:52.300Z,23.57
2018-01-14T09:59:19.004Z,23.30
2018-01-14T10:01:45.689Z,25.37
2018-01-14T10:04:13.334Z,25.20
2018-01-14T10:06:40.060Z,23.37
2018-01-14T10:09:06.750Z,22.37
2018-01-14T10:11:33.440Z,23.47
2018-01-14T10:14:00.168Z,25.13
2018-01-14T10:16:26.876Z,26.30
2018-01-14T10:18:53.580Z,20.00
2018-01-14T10:21:25.726Z,23.27
2018-01-14T10:23:52.418Z,24.67
2018-01-14T10:26:19.570Z,21.33
2018-01-14T10:28:46.266Z,28.10
2018-01-14T10:31:13.982Z,25.10
2018-01-14T10:33:41.661Z,25.83
2018-01-14T10:36:08.462Z,22.30
2018-01-14T10:38:35.316Z,23.43
2018-01-14T10:41:08.912Z,21.37
2018-01-14T10:43:36.490Z,29.53
2018-01-14T10:46:04.098Z,19.77
2018-01-14T10:48:30.856Z,19.33
2018-01-14T10:50:57.534Z,23.93
2018-01-14T10:53:24.264Z,21.70
2018-01-14T10:55:50.984Z,28.83
2018-01-14T10:58:17.685Z,22.83
2018-01-14T11:00:50.043Z,28.67
2018-01-14T11:03:16.774Z,28.30
2018-01-14T11:05:43.474Z,23.90
2018-01-14T11:08:10.159Z,18.80
2018-01-14T11:10:36.884Z,23.37
2018-01-14T11:13:03.572Z,21.53
2018-01-14T11:15:30.901Z,23.83
2018-01-14T11:17:57.625Z,24.40
2018-01-14T11:23:11.342Z,21.23
2018-01-14T11:25:41.249Z,21.53
2018-01-14T11:28:08.884Z,18.93
2018-01-14T11:30:35.615Z,27.13
2018-01-14T11:33:02.740Z,22.43
2018-01-14T11:35:29.482Z,20.93
2018-01-14T11:37:57.310Z,25.23
2018-01-14T11:40:24.049Z,23.37
2018-01-14T11:42:51.830Z,25.87
2018-01-14T11:45:18.546Z,27.57
2018-01-14T11:47:45.327Z,29.97
2018-01-14T11:50:12.071Z,26.37
2018-01-14T11:52:38.792Z,27.77
2018-01-14T11:55:05.544Z,28.80
2018-01-14T11:57:32.248Z,24.40
2018-01-14T11:59:58.980Z,26.43
2018-01-14T12:02:25.739Z,28.13
2018-01-14T12:04:52.438Z,29.13
2018-01-14T12:07:19.156Z,32.00
2018-01-14T12:09:45.848Z,30.07
2018-01-14T12:12:12.549Z,26.80
2018-01-14T12:14:39.312Z,30.37
2018-01-14T12:17:05.998Z,29.00
2018-01-14T12:19:34.933Z,35.57
2018-01-14T12:22:02.644Z,27.67
2018-01-14T12:24:29.356Z,27.57
2018-01-14T12:26:56.054Z,29.23
2018-01-14T12:29:22.836Z,31.83
2018-01-14T12:31:52.968Z,28.67
2018-01-14T12:34:35.263Z,31.27
2018-01-14T12:37:01.982Z,33.40
2018-01-14T12:39:28.751Z,28.00
2018-01-14T12:41:56.163Z,31.37
2018-01-14T12:44:22.874Z,33.20
2018-01-14T12:46:50.292Z,30.30
2018-01-14T12:49:17.046Z,37.00
2018-01-14T12:51:43.734Z,31.23
2018-01-14T12:54:10.448Z,28.77
2018-01-14T12:56:38.050Z,28.13
2018-01-14T12:59:04.742Z,26.53
2018-01-14T13:01:31.449Z,31.87
2018-01-14T13:03:58.862Z,30.13
2018-01-14T13:06:33.062Z,30.87
2018-01-14T13:08:59.769Z,27.20
2018-01-14T13:11:27.896Z,36.03
2018-01-14T13:13:54.652Z,27.20
2018-01-14T13:16:21.424Z,33.63
2018-01-14T13:18:48.157Z,33.43
2018-01-14T13:21:14.854Z,30.37
2018-01-14T13:23:41.566Z,32.63
2018-01-14T13:26:11.020Z,28.90
2018-01-14T13:28:41.790Z,30.03
2018-01-14T13:31:08.486Z,32.23
2018-01-14T13:33:35.260Z,30.80
2018-01-14T13:36:03.080Z,29.60
2018-01-14T13:38:29.860Z,29.87
2018-01-14T13:40:56.574Z,29.50
2018-01-14T13:43:23.303Z,29.83
2018-01-14T13:45:49.973Z,29.87
2018-01-14T13:48:16.668Z,33.63
2018-01-14T13:50:50.465Z,28.20
2018-01-14T13:53:18.093Z,30.23
2018-01-14T13:55:47.728Z,30.83
2018-01-14T13:58:17.955Z,31.00
2018-01-14T14:00:44.663Z,32.10
2018-01-14T14:03:11.362Z,34.37
2018-01-14T14:05:40.049Z,28.70
2018-01-14T14:08:06.769Z,38.13
2018-01-14T14:10:33.493Z,35.93
2018-01-14T14:13:01.025Z,36.10
2018-01-14T14:15:28.771Z,33.93
2018-01-14T14:17:57.247Z,32.97
2018-01-14T14:20:23.961Z,43.50
2018-01-14T14:22:50.644Z,39.77
2018-01-14T14:25:17.367Z,36.37
2018-01-14T14:27:44.068Z,28.60
2018-01-14T14:30:10.780Z,33.23
2018-01-14T14:32:39.389Z,35.57
2018-01-14T14:35:06.147Z,29.10
2018-01-14T14:37:32.847Z,33.20
2018-01-14T14:39:59.548Z,33.53
2018-01-14T14:42:32.204Z,23.20
2018-01-14T14:44:58.955Z,35.63
2018-01-14T14:47:27.780Z,33.30
2018-01-14T14:49:54.524Z,27.43
2018-01-14T14:52:21.395Z,26.83
2018-01-14T14:54:58.224Z,38.13
2018-01-14T14:57:25.361Z,32.73
2018-01-14T14:59:52.259Z,30.80
2018-01-14T15:02:18.971Z,33.63
2018-01-14T15:04:45.718Z,42.90
2018-01-14T15:07:12.466Z,33.43
2018-01-14T15:09:39.395Z,39.37
2018-01-14T15:12:15.315Z,37.37
2018-01-14T15:14:42.019Z,38.63
2018-01-14T15:17:12.065Z,45.83
2018-01-14T15:19:38.781Z,36.63
2018-01-14T15:22:05.495Z,43.33
2018-01-14T15:24:32.545Z,39.10
2018-01-14T15:26:59.347Z,45.77
2018-01-14T15:29:26.035Z,41.77
2018-01-14T15:31:53.608Z,39.87
2018-01-14T15:34:20.340Z,36.47
2018-01-14T15:36:47.315Z,49.57
2018-01-14T15:39:14.953Z,48.80
2018-01-14T15:41:46.729Z,44.07
2018-01-14T15:44:13.445Z,43.30
2018-01-14T15:46:40.119Z,42.73
2018-01-14T15:49:07.415Z,49.83
2018-01-14T15:51:35.260Z,51.63
2018-01-14T15:54:02.277Z,56.13
2018-01-14T15:56:28.992Z,54.80
2018-01-14T15:58:55.679Z,52.00
2018-01-14T16:01:22.372Z,60.53
2018-01-14T16:03:49.287Z,45.17
2018-01-14T16:06:16.775Z,47.67
2018-01-14T16:08:45.253Z,46.40
2018-01-14T16:11:11.997Z,53.33
2018-01-14T16:13:39.593Z,52.07
2018-01-14T16:16:06.279Z,60.60
2018-01-14T16:18:33.171Z,54.30
2018-01-14T16:21:01.465Z,47.57
2018-01-14T16:23:31.411Z,48.33
2018-01-14T16:25:58.125Z,55.63
2018-01-14T16:28:24.819Z,53.93
2018-01-14T16:30:51.494Z,53.97
2018-01-14T16:33:18.479Z,52.53
2018-01-14T16:35:46.234Z,58.67
2018-01-14T16:38:13.823Z,59.63
2018-01-14T16:40:40.552Z,48.33
2018-01-14T16:43:07.760Z,53.17
2018-01-14T16:45:34.749Z,51.07
2018-01-14T16:48:02.687Z,43.63
2018-01-14T16:50:29.417Z,52.20
2018-01-14T16:52:56.129Z,48.90
2018-01-14T16:55:22.910Z,46.70
2018-01-14T16:57:50.450Z,41.10
2018-01-14T17:00:17.177Z,47.33
2018-01-14T17:02:43.968Z,47.07
2018-01-14T17:05:10.661Z,51.67
2018-01-14T17:07:37.373Z,50.37
2018-01-14T17:10:04.126Z,46.20
2018-01-14T17:12:30.805Z,48.03
2018-01-14T17:14:57.499Z,51.50
2018-01-14T17:17:24.356Z,47.50
2018-01-14T17:19:51.037Z,53.27
2018-01-14T17:22:17.722Z,44.30
2018-01-14T17:24:44.507Z,45.00
2018-01-14T17:27:11.198Z,47.13
2018-01-14T17:29:39.306Z,48.23
2018-01-14T17:32:06.042Z,47.83
2018-01-14T17:34:32.723Z,51.40
2018-01-14T17:36:59.456Z,48.90
2018-01-14T17:39:26.623Z,51.63
2018-01-14T17:41:53.319Z,50.90
2018-01-14T17:44:19.995Z,56.83
2018-01-14T17:46:46.736Z,61.43
2018-01-14T17:49:13.419Z,65.27
2018-01-14T17:51:40.125Z,63.90
2018-01-14T17:54:06.892Z,67.67
2018-01-14T17:56:33.624Z,58.57
2018-01-14T17:59:00.332Z,62.10
2018-01-14T18:01:27.086Z,70.53
2018-01-14T18:03:53.819Z,66.63
2018-01-14T18:06:20.530Z,61.30
2018-01-14T18:08:47.230Z,61.83
2018-01-14T18:11:13.922Z,56.83
2018-01-14T18:13:44.771Z,61.70
2018-01-14T18:16:11.564Z,54.50
2018-01-14T18:18:38.245Z,67.33
2018-01-14T18:23:51.035Z,60.13
2018-01-14T18:26:17.750Z,58.00
2018-01-14T18:28:44.431Z,56.57
2018-01-14T18:31:11.980Z,58.73
2018-01-14T18:33:38.716Z,58.23
2018-01-14T18:36:10.364Z,59.60
2018-01-14T18:38:37.101Z,52.83
2018-01-14T18:41:03.829Z,55.90
2018-01-14T18:43:30.972Z,54.53
2018-01-14T18:45:57.875Z,58.60
2018-01-14T18:48:24.616Z,55.00
2018-01-14T18:50:52.673Z,64.47
2018-01-14T18:53:19.361Z,69.47
2018-01-14T18:55:48.501Z,65.97
2018-01-14T18:58:18.206Z,66.23
2018-01-14T19:00:44.990Z,68.43
2018-01-14T19:03:11.699Z,66.47
2018-01-14T19:05:38.401Z,67.70
2018-01-14T19:08:05.096Z,71.93
2018-01-14T19:10:32.512Z,68.77
2018-01-14T19:12:59.197Z,69.50
2018-01-14T19:18:05.910Z,72.33
2018-01-14T19:20:32.595Z,70.33
2018-01-14T19:22:59.343Z,69.00
2018-01-14T19:25:26.063Z,79.40
2018-01-14T19:27:53.177Z,72.77
2018-01-14T19:30:19.937Z,71.90
2018-01-14T19:32:46.675Z,91.97
2018-01-14T19:35:13.367Z,81.40
2018-01-14T19:37:40.051Z,86.17
2018-01-14T19:40:06.783Z,89.80
2018-01-14T19:42:33.757Z,98.07
2018-01-14T19:45:00.461Z,94.03
2018-01-14T19:47:27.227Z,94.70
2018-01-14T19:49:53.980Z,90.40
2018-01-14T19:52:20.680Z,84.87
2018-01-14T19:54:47.470Z,82.77
2018-01-14T19:57:14.255Z,84.20
2018-01-14T19:59:40.979Z,79.00
2018-01-14T20:02:07.885Z,86.57
2018-01-14T20:04:34.832Z,91.03
2018-01-14T20:07:01.579Z,92.33
2018-01-14T20:09:28.335Z,108.83
2018-01-14T20:11:56.703Z,128.10
2018-01-14T20:14:23.473Z,142.80
2018-01-14T20:16:50.251Z,127.37
2018-01-14T20:19:17.311Z,124.83
2018-01-14T20:21:44.062Z,117.70
2018-01-14T20:24:10.808Z,107.90
2018-01-14T20:26:37.573Z,116.63
2018-01-14T20:29:04.305Z,113.13
2018-01-14T20:31:31.037Z,112.30
2018-01-14T20:33:57.777Z,114.13
2018-01-14T20:36:24.869Z,122.30
2018-01-14T20:38:51.623Z,116.40
2018-01-14T20:41:18.321Z,122.57
2018-01-14T20:43:45.673Z,125.47
2018-01-14T20:46:12.480Z,139.47
2018-01-14T20:48:39.221Z,135.40
2018-01-14T20:51:06.272Z,133.13
2018-01-14T20:53:33.022Z,158.43
2018-01-14T20:55:59.756Z,173.00
2018-01-14T20:58:26.499Z,122.27
2018-01-14T21:00:53.310Z,127.73
2018-01-14T21:03:20.085Z,122.63
2018-01-14T21:05:46.771Z,124.50
2018-01-14T21:08:13.499Z,108.00
2018-01-14T21:10:40.700Z,108.47
2018-01-14T21:13:07.390Z,107.83
2018-01-14T21:15:34.192Z,102.20
2018-01-14T21:18:01.109Z,101.33
2018-01-14T21:20:27.805Z,112.63
2018-01-14T21:22:55.570Z,107.10
2018-01-14T21:25:22.271Z,109.63
2018-01-14T21:27:49.015Z,122.33
2018-01-14T21:30:15.764Z,110.13
2018-01-14T21:32:42.463Z,126.07
2018-01-14T21:35:09.199Z,132.20
2018-01-14T21:37:35.958Z,133.03
2018-01-14T21:40:02.990Z,133.00
2018-01-14T21:42:29.764Z,138.87
2018-01-14T21:44:56.509Z,133.00
2018-01-14T21:47:23.864Z,125.87
2018-01-14T21:49:50.570Z,122.27
2018-01-14T21:52:17.266Z,113.50
2018-01-14T21:54:43.955Z,129.37
2018-01-14T21:57:10.667Z,120.57
2018-01-14T21:59:37.448Z,129.23
2018-01-14T22:02:04.665Z,113.37
2018-01-14T22:04:31.352Z,128.77
2018-01-14T22:06:58.092Z,125.43
2018-01-14T22:09:25.770Z,127.03
2018-01-14T22:11:52.469Z,129.00
2018-01-14T22:14:19.196Z,128.67
2018-01-14T22:16:46.905Z,117.97
2018-01-14T22:19:13.589Z,110.00
2018-01-14T22:21:40.291Z,137.60
2018-01-14T22:24:07.008Z,130.37
2018-01-14T22:26:33.710Z,137.80
2018-01-14T22:29:02.387Z,137.17
2018-01-14T22:31:29.993Z,122.07
2018-01-14T22:33:57.680Z,125.30
2018-01-14T22:36:24.420Z,129.93
2018-01-14T22:38:52.088Z,128.77
2018-01-14T22:41:18.796Z,128.37
2018-01-14T22:43:46.511Z,123.47
2018-01-14T22:46:14.209Z,124.10
2018-01-14T22:48:40.962Z,117.13
2018-01-14T22:51:08.695Z,124.03
2018-01-14T22:53:35.393Z,116.13
2018-01-14T22:56:03.090Z,100.50
2018-01-14T22:58:29.797Z,106.90
2018-01-14T23:00:57.530Z,98.93
2018-01-14T23:03:26.317Z,105.00
2018-01-14T23:05:53.033Z,93.60
2018-01-14T23:08:19.726Z,107.17
2018-01-14T23:10:50.509Z,101.43
2018-01-14T23:13:22.204Z,83.30
2018-01-14T23:15:48.924Z,87.80
2018-01-14T23:18:15.615Z,90.97
2018-01-14T23:20:43.365Z,89.73
2018-01-14T23:23:10.280Z,87.77
2018-01-14T23:25:45.678Z,85.27
2018-01-14T23:28:13.168Z,82.27
2018-01-14T23:30:39.928Z,78.83
2018-01-14T23:33:06.713Z,89.37
2018-01-14T23:35:33.709Z,72.10
2018-01-14T23:38:00.395Z,71.13
2018-01-14T23:40:27.144Z,72.70
2018-01-14T23:43:09.382Z,77.17
2018-01-14T23:45:37.146Z,69.57
2018-01-14T23:48:07.128Z,66.53
2018-01-14T23:50:33.846Z,69.73
2018-01-14T23:53:01.594Z,72.67
2018-01-14T23:55:28.283Z,65.53
2018-01-14T23:57:59.050Z,62.53
